Time;durP1;ratioP1;P1;durP2;ratioP2;P2;SDS_P1;SDS_P2;PMS_P1;PMS_P2;Temp;Humidity;BMP_temperature;BMP_pressure;BME280_temperature;BME280_humidity;BME280_pressure;Samples;Min_cycle;Max_cycle;Signal;HPM_P1;HPM_P2
2022/07/19 00:01:27;;;;;;;2.33;1.40;;;;;;;16.90;93.06;101046.66;5139077;28;20019;-74
2022/07/19 00:03:57;;;;;;;4.60;1.83;;;;;;;16.97;91.37;101050.69;5139014;28;20034;-74
2022/07/19 00:06:27;;;;;;;3.72;1.63;;;;;;;16.98;90.42;101047.94;5142190;28;20103;-74
2022/07/19 00:08:58;;;;;;;5.85;1.73;;;;;;;17.14;89.41;101042.69;5142264;28;20023;-74
2022/07/19 00:11:29;;;;;;;4.38;1.77;;;;;;;17.03;90.88;101055.63;5142551;28;20030;-74
2022/07/19 00:13:59;;;;;;;5.88;1.80;;;;;;;17.05;89.12;101051.09;5142730;28;20404;-74
2022/07/19 00:16:30;;;;;;;7.07;1.75;;;;;;;17.10;89.55;101056.97;5142570;28;20034;-74
2022/07/19 00:19:00;;;;;;;5.85;1.73;;;;;;;17.05;89.29;101048.47;5142080;28;20025;-74
2022/07/19 00:21:30;;;;;;;4.57;1.88;;;;;;;16.94;89.84;101048.22;5142075;28;20102;-74
2022/07/19 00:24:01;;;;;;;5.32;1.90;;;;;;;17.04;88.80;101050.28;5142380;28;20059;-74
2022/07/19 00:26:31;;;;;;;4.25;1.60;;;;;;;16.86;89.79;101042.47;5141668;28;20030;-71
2022/07/19 00:29:02;;;;;;;6.38;1.98;;;;;;;16.94;89.63;101045.56;5141937;28;20031;-74
2022/07/19 00:31:32;;;;;;;5.65;1.90;;;;;;;16.94;88.58;101045.56;5140646;28;20077;-74
2022/07/19 00:34:03;;;;;;;5.60;2.05;;;;;;;16.66;91.34;101042.69;5142278;28;20031;-74
2022/07/19 00:36:33;;;;;;;4.30;1.70;;;;;;;16.92;89.31;101042.13;5141907;28;20100;-73
2022/07/19 00:39:03;;;;;;;8.82;2.05;;;;;;;16.75;90.50;101044.81;5142299;28;20085;-74
2022/07/19 00:41:44;;;;;;;9.75;1.90;;;;;;;16.86;89.52;101037.19;5124431;28;20476;-74
2022/07/19 00:44:14;;;;;;;7.03;1.60;;;;;;;16.86;89.93;101043.34;5141463;28;20034;-74
2022/07/19 00:46:44;;;;;;;5.90;1.65;;;;;;;16.86;89.94;101042.47;5141565;28;20049;-74
2022/07/19 00:49:15;;;;;;;6.22;1.92;;;;;;;16.47;91.35;101049.00;5141719;28;20082;-74
2022/07/19 00:51:47;;;;;;;6.00;2.13;;;;;;;16.42;91.93;101041.31;5142106;28;20033;-74
2022/07/19 00:54:18;;;;;;;7.10;1.90;;;;;;;16.30;92.86;101044.59;5139951;28;20097;-74
2022/07/19 00:56:50;;;;;;;4.80;1.90;;;;;;;16.43;92.23;101036.91;5138715;28;20077;-74
2022/07/19 00:59:21;;;;;;;6.30;1.85;;;;;;;16.11;92.83;101035.91;5132748;28;20057;-74
2022/07/19 01:01:52;;;;;;;6.75;2.15;;;;;;;16.26;92.11;101039.53;5137676;28;20121;-74
2022/07/19 01:04:23;;;;;;;8.27;2.20;;;;;;;16.28;92.31;101042.94;5147798;28;20085;-74
2022/07/19 01:06:53;;;;;;;8.35;1.90;;;;;;;16.33;91.12;101041.78;5140214;28;20030;-74
2022/07/19 01:09:24;;;;;;;5.05;1.98;;;;;;;16.40;89.62;101050.28;5140716;28;20393;-73
2022/07/19 01:11:56;;;;;;;5.15;2.10;;;;;;;16.45;90.31;101048.22;5141125;28;20049;-74
2022/07/19 01:14:27;;;;;;;5.00;1.90;;;;;;;16.41;90.55;101044.91;5137658;28;20687;-73
2022/07/19 01:16:59;;;;;;;7.68;2.08;;;;;;;16.52;88.43;101042.56;5140948;28;20026;-74
2022/07/19 01:19:30;;;;;;;8.75;1.70;;;;;;;16.22;91.14;101043.28;5140530;28;20031;-74
2022/07/19 01:22:00;;;;;;;4.55;1.90;;;;;;;16.06;91.95;101045.81;5139727;28;20027;-74
2022/07/19 01:24:31;;;;;;;7.30;1.70;;;;;;;15.88;92.54;101053.81;5140700;28;20027;-74
2022/07/19 01:27:01;;;;;;;6.28;1.88;;;;;;;16.15;91.83;101048.00;5141175;28;20042;-74
2022/07/19 01:29:32;;;;;;;5.30;1.98;;;;;;;16.25;91.09;101051.84;5140564;28;20056;-74
2022/07/19 01:32:04;;;;;;;7.65;1.70;;;;;;;16.02;92.20;101052.19;5141332;28;20022;-74
2022/07/19 01:34:34;;;;;;;6.55;1.70;;;;;;;16.03;91.40;101043.34;5140795;28;20106;-74
2022/07/19 01:37:05;;;;;;;11.98;2.08;;;;;;;16.02;92.09;101049.53;5141020;28;20097;-74
2022/07/19 01:39:35;;;;;;;8.70;2.03;;;;;;;16.24;91.10;101051.94;5140814;28;20065;-74
2022/07/19 01:42:05;;;;;;;9.50;2.53;;;;;;;16.10;90.79;101046.50;5140422;28;20031;-74
2022/07/19 01:44:36;;;;;;;7.43;2.10;;;;;;;16.26;90.35;101058.88;5140592;28;20082;-74
2022/07/19 01:47:06;;;;;;;7.55;2.10;;;;;;;16.38;89.65;101052.97;5140117;28;20026;-74
2022/07/19 01:49:36;;;;;;;6.28;2.00;;;;;;;16.27;89.96;101057.06;5140179;28;20102;-74
2022/07/19 01:52:07;;;;;;;8.48;2.05;;;;;;;16.06;91.89;101048.44;5141052;28;20507;-74
2022/07/19 01:54:37;;;;;;;9.38;2.30;;;;;;;16.09;91.67;101044.81;5139986;28;20105;-74
2022/07/19 01:57:08;;;;;;;5.35;1.90;;;;;;;16.07;91.74;101044.03;5140253;28;20029;-74
2022/07/19 01:59:39;;;;;;;6.78;2.17;;;;;;;16.20;91.39;101050.41;5140481;28;20408;-74
2022/07/19 02:02:09;;;;;;;8.63;2.03;;;;;;;16.11;91.00;101045.59;5140258;28;20023;-74
2022/07/19 02:04:39;;;;;;;5.78;1.73;;;;;;;16.11;91.68;101050.84;5140288;28;20038;-74
2022/07/19 02:07:10;;;;;;;5.40;2.15;;;;;;;16.38;89.37;101045.06;5139380;28;20042;-74
2022/07/19 02:09:40;;;;;;;4.72;2.08;;;;;;;16.36;90.28;101054.00;5140145;28;20041;-74
2022/07/19 02:12:10;;;;;;;4.72;2.08;;;;;;;16.37;89.32;101059.19;5139735;28;20045;-74
2022/07/19 02:14:41;;;;;;;5.40;1.60;;;;;;;16.38;87.53;101057.41;5140463;28;20090;-74
2022/07/19 02:17:11;;;;;;;5.60;1.60;;;;;;;16.32;87.61;101058.53;5139503;28;20086;-74
2022/07/19 02:19:41;;;;;;;5.20;2.00;;;;;;;16.01;88.02;101061.03;5139971;28;20066;-74
2022/07/19 02:22:12;;;;;;;6.60;2.00;;;;;;;15.84;88.38;101061.00;5139532;28;20109;-74
2022/07/19 02:24:42;;;;;;;4.03;1.73;;;;;;;15.92;88.16;101060.63;5139775;28;20578;-74
2022/07/19 02:27:13;;;;;;;6.65;1.92;;;;;;;15.44;91.51;101058.59;5138586;28;20057;-74
2022/07/19 02:29:43;;;;;;;4.82;1.98;;;;;;;15.36;92.50;101055.47;5139680;28;20555;-74
2022/07/19 02:32:13;;;;;;;7.75;1.70;;;;;;;15.02;94.44;101050.03;5139352;28;20473;-74
2022/07/19 02:34:44;;;;;;;9.25;2.00;;;;;;;14.87;97.28;101055.16;5140063;28;20640;-74
2022/07/19 02:37:14;;;;;;;7.20;2.17;;;;;;;14.93;96.79;101045.19;5139139;28;20105;-73
2022/07/19 02:39:45;;;;;;;2.95;1.65;;;;;;;15.24;94.57;101056.03;5139458;28;20480;-74
2022/07/19 02:42:15;;;;;;;6.18;1.90;;;;;;;15.36;93.74;101058.09;5139439;28;20026;-74
2022/07/19 02:44:45;;;;;;;4.22;1.60;;;;;;;15.58;92.72;101055.28;5139205;28;20424;-74
2022/07/19 02:47:16;;;;;;;3.85;1.90;;;;;;;15.65;91.39;101056.69;5139502;28;20034;-74
2022/07/19 02:49:46;;;;;;;3.58;1.80;;;;;;;15.46;93.06;101056.75;5139256;28;20109;-74
2022/07/19 02:52:16;;;;;;;6.28;2.30;;;;;;;15.00;95.71;101058.94;5140010;28;20019;-74
2022/07/19 02:54:47;;;;;;;6.97;2.38;;;;;;;14.85;97.34;101060.47;5139307;28;20029;-74
2022/07/19 02:57:17;;;;;;;5.38;2.00;;;;;;;14.68;98.88;101058.66;5137949;28;20105;-74
2022/07/19 02:59:47;;;;;;;7.28;2.10;;;;;;;14.60;99.37;101066.88;5137813;28;20023;-74
2022/07/19 03:02:18;;;;;;;6.45;2.00;;;;;;;14.37;100.00;101069.69;5139317;28;20019;-74
2022/07/19 03:04:49;;;;;;;7.32;1.95;;;;;;;14.43;100.00;101069.41;5138547;28;20680;-74
2022/07/19 03:07:19;;;;;;;5.95;1.88;;;;;;;14.61;98.51;101067.75;5138130;28;20113;-74
2022/07/19 03:09:50;;;;;;;4.43;2.00;;;;;;;14.50;100.00;101064.75;5137282;28;20099;-73
2022/07/19 03:12:20;;;;;;;6.25;2.30;;;;;;;14.29;100.00;101066.50;5139619;28;20365;-74
2022/07/19 03:14:50;;;;;;;7.80;2.25;;;;;;;14.26;100.00;101071.06;5139228;28;20025;-74
2022/07/19 03:17:21;;;;;;;6.28;2.30;;;;;;;14.62;99.37;101072.09;5139419;28;20031;-74
2022/07/19 03:19:51;;;;;;;5.60;1.85;;;;;;;14.84;98.21;101061.41;5138492;28;20449;-74
2022/07/19 03:22:21;;;;;;;4.85;2.03;;;;;;;14.62;99.39;101066.84;5139154;28;20085;-74
2022/07/19 03:24:52;;;;;;;4.72;2.10;;;;;;;14.58;100.00;101066.09;5139133;28;20070;-74
2022/07/19 03:27:22;;;;;;;6.78;2.20;;;;;;;14.59;98.69;101065.19;5138065;28;20027;-74
2022/07/19 03:29:52;;;;;;;4.80;2.05;;;;;;;14.34;100.00;101063.69;5138295;28;20465;-74
2022/07/19 03:32:22;;;;;;;8.80;2.45;;;;;;;14.51;100.00;101059.41;5138886;28;20367;-76
2022/07/19 03:34:53;;;;;;;6.55;2.17;;;;;;;14.51;100.00;101053.28;5139533;28;20042;-74
2022/07/19 03:37:23;;;;;;;3.58;1.77;;;;;;;14.55;97.99;101057.50;5138863;28;20068;-74
2022/07/19 03:39:53;;;;;;;8.35;2.28;;;;;;;14.25;100.00;101062.31;5140105;28;20416;-74
2022/07/19 03:42:24;;;;;;;6.47;2.20;;;;;;;14.25;100.00;101058.84;5142420;28;20019;-74
2022/07/19 03:44:54;;;;;;;4.30;1.85;;;;;;;14.36;100.00;101067.97;5142361;28;20539;-74
2022/07/19 03:47:24;;;;;;;8.55;2.20;;;;;;;14.35;100.00;101068.03;5138434;28;20054;-74
2022/07/19 03:49:55;;;;;;;5.70;2.08;;;;;;;14.25;100.00;101064.09;5142946;28;20077;-74
2022/07/19 03:52:25;;;;;;;7.43;2.05;;;;;;;14.30;100.00;101070.00;5142733;28;20042;-74
2022/07/19 03:54:56;;;;;;;4.88;1.98;;;;;;;14.41;100.00;101059.91;5142608;28;20026;-74
2022/07/19 03:57:26;;;;;;;9.13;2.00;;;;;;;14.35;100.00;101074.16;5140343;28;20054;-73
2022/07/19 03:59:56;;;;;;;5.55;2.22;;;;;;;14.48;99.78;101066.59;5142287;28;20048;-74
2022/07/19 04:02:27;;;;;;;4.10;2.00;;;;;;;14.52;98.98;101073.41;5166617;23;20707;-68
2022/07/19 04:04:57;;;;;;;4.88;2.00;;;;;;;14.53;99.16;101065.47;5173584;28;20124;-71
2022/07/19 04:07:28;;;;;;;6.95;2.22;;;;;;;14.48;100.00;101062.19;5160591;28;20026;-71
2022/07/19 04:09:58;;;;;;;5.88;2.10;;;;;;;14.49;100.00;101065.66;5176628;28;20041;-71
2022/07/19 04:12:29;;;;;;;4.85;1.80;;;;;;;14.58;99.91;101065.28;5175217;28;20484;-71
2022/07/19 04:15:00;;;;;;;5.00;2.15;;;;;;;14.69;99.52;101063.88;5162091;28;20027;-71
2022/07/19 04:17:31;;;;;;;8.00;2.05;;;;;;;14.83;98.88;101067.59;5161498;28;20058;-70
2022/07/19 04:20:02;;;;;;;8.27;2.47;;;;;;;15.16;96.67;101070.47;5160696;28;20400;-71
2022/07/19 04:22:32;;;;;;;7.00;1.85;;;;;;;15.50;94.08;101071.47;5160697;28;20037;-71
2022/07/19 04:25:03;;;;;;;6.78;2.03;;;;;;;15.72;91.79;101064.22;5176795;28;20052;-71
2022/07/19 04:27:34;;;;;;;4.90;1.90;;;;;;;15.45;94.62;101067.34;5161372;28;20182;-71
2022/07/19 04:30:05;;;;;;;5.72;2.03;;;;;;;15.43;95.46;101063.94;5168959;28;20525;-70
2022/07/19 04:32:35;;;;;;;8.77;2.28;;;;;;;15.48;95.81;101069.81;5144577;28;20045;-71
2022/07/19 04:35:07;;;;;;;7.53;2.13;;;;;;;15.42;97.02;101071.00;5160445;28;20488;-71
2022/07/19 04:37:37;;;;;;;5.40;1.85;;;;;;;15.42;96.65;101078.03;5160400;28;20526;-71
2022/07/19 04:40:08;;;;;;;10.35;2.20;;;;;;;15.40;98.35;101075.44;5160375;28;20081;-71
2022/07/19 04:42:39;;;;;;;4.30;1.95;;;;;;;15.69;96.92;101079.34;5160100;28;20034;-71
2022/07/19 04:45:10;;;;;;;5.80;2.00;;;;;;;17.07;90.33;101078.28;5159578;28;20083;-73
2022/07/19 04:47:40;;;;;;;5.75;1.85;;;;;;;18.45;84.41;101078.25;5160128;28;20499;-73
2022/07/19 04:50:10;;;;;;;5.07;1.80;;;;;;;19.55;79.53;101068.63;5159441;28;20033;-72
2022/07/19 04:52:41;;;;;;;4.40;1.80;;;;;;;20.85;76.05;101070.34;5161711;28;20038;-73
2022/07/19 04:55:11;;;;;;;2.30;1.35;;;;;;;21.10;75.39;101077.44;5168515;28;20037;-72
2022/07/19 04:57:42;;;;;;;8.80;1.70;;;;;;;21.77;72.22;101066.34;5160858;28;20042;-73
2022/07/19 05:00:12;;;;;;;8.32;1.90;;;;;;;22.50;70.20;101074.03;5144352;28;20114;-73
2022/07/19 05:02:43;;;;;;;4.22;1.90;;;;;;;22.79;70.10;101068.16;5161714;28;20034;-73
2022/07/19 05:05:14;;;;;;;4.13;1.77;;;;;;;24.25;68.12;101064.16;5159732;28;20034;-74
2022/07/19 05:07:44;;;;;;;7.55;1.90;;;;;;;26.17;59.88;101063.84;5160281;28;20056;-74
2022/07/19 05:10:15;;;;;;;6.10;1.65;;;;;;;27.93;56.29;101061.84;5158121;28;20166;-73
2022/07/19 05:12:45;;;;;;;3.95;1.70;;;;;;;29.67;52.96;101055.94;5161013;28;20018;-73
2022/07/19 05:15:16;;;;;;;4.93;1.60;;;;;;;30.03;52.30;101061.94;5160437;28;20064;-74
2022/07/19 05:17:46;;;;;;;4.15;1.60;;;;;;;30.12;51.91;101066.34;5160404;28;20296;-74
2022/07/19 05:20:17;;;;;;;6.00;2.00;;;;;;;30.09;52.38;101058.59;5161283;28;20061;-73
2022/07/19 05:22:47;;;;;;;3.60;1.80;;;;;;;30.19;52.23;101060.09;5160733;28;20018;-74
2022/07/19 05:25:17;;;;;;;3.13;1.45;;;;;;;30.66;52.36;101049.47;5161416;28;20076;-74
2022/07/19 05:27:48;;;;;;;3.95;1.55;;;;;;;31.61;49.99;101056.41;5160000;28;20022;-73
2022/07/19 05:30:18;;;;;;;4.43;1.63;;;;;;;31.39;50.13;101054.50;5160653;28;20102;-74
2022/07/19 05:32:48;;;;;;;7.07;1.90;;;;;;;32.03;50.15;101054.97;5160630;28;20756;-74
2022/07/19 05:35:19;;;;;;;4.00;1.75;;;;;;;31.22;51.57;101053.72;5161178;28;20017;-74
2022/07/19 05:37:49;;;;;;;6.30;1.70;;;;;;;30.10;52.78;101057.56;5167051;28;20029;-74
2022/07/19 05:40:19;;;;;;;4.43;1.80;;;;;;;32.64;49.41;101054.84;5159153;28;20018;-74
2022/07/19 05:42:50;;;;;;;5.88;2.15;;;;;;;32.04;49.61;101062.06;5161139;28;20388;-74
2022/07/19 05:45:20;;;;;;;7.57;1.80;;;;;;;29.60;53.29;101063.00;5160635;28;20018;-74
2022/07/19 05:47:50;;;;;;;4.28;1.55;;;;;;;29.02;54.20;101070.13;5157028;28;20059;-73
2022/07/19 05:50:21;;;;;;;6.83;1.93;;;;;;;31.51;49.70;101056.63;5165288;28;20029;-75
2022/07/19 05:52:51;;;;;;;4.63;1.67;;;;;;;30.97;50.49;101059.34;5159776;28;20269;-75
2022/07/19 05:55:21;;;;;;;7.30;1.90;;;;;;;31.50;49.35;101060.34;5159637;28;20375;-74
2022/07/19 05:57:52;;;;;;;4.70;1.80;;;;;;;30.78;50.72;101054.34;5155980;28;20277;-74
2022/07/19 06:00:22;;;;;;;7.47;1.70;;;;;;;30.84;50.82;101054.50;5168052;28;20019;-74
2022/07/19 06:02:53;;;;;;;3.60;1.80;;;;;;;29.64;52.86;101063.50;5160337;28;20272;-74
2022/07/19 06:05:23;;;;;;;7.65;2.10;;;;;;;28.96;53.09;101064.53;5156276;28;20504;-75
2022/07/19 06:07:53;;;;;;;7.45;2.05;;;;;;;28.52;54.96;101068.28;5143224;28;20069;-73
2022/07/19 06:10:24;;;;;;;3.83;1.88;;;;;;;27.63;57.79;101065.66;5160206;28;20026;-73
2022/07/19 06:12:54;;;;;;;5.88;2.00;;;;;;;27.22;58.71;101071.56;5160031;28;20030;-73
2022/07/19 06:15:24;;;;;;;4.50;2.00;;;;;;;27.27;57.73;101065.75;5161075;28;20022;-73
2022/07/19 06:17:54;;;;;;;4.82;1.73;;;;;;;27.10;58.60;101064.69;5160374;28;20506;-74
2022/07/19 06:20:25;;;;;;;4.30;1.70;;;;;;;26.79;60.26;101071.25;5159803;28;20030;-73
2022/07/19 06:22:55;;;;;;;4.25;1.85;;;;;;;26.40;60.44;101070.59;5154319;28;20269;-74
2022/07/19 06:25:26;;;;;;;5.75;2.00;;;;;;;26.56;60.98;101069.06;5160583;28;20022;-75
2022/07/19 06:27:56;;;;;;;9.50;2.25;;;;;;;27.28;59.68;101070.13;5158289;28;20041;-74
2022/07/19 06:30:26;;;;;;;9.18;2.13;;;;;;;27.18;58.13;101069.31;5159387;28;20502;-73
2022/07/19 06:32:57;;;;;;;4.05;1.70;;;;;;;27.28;59.82;101068.25;5159695;28;20113;-71
2022/07/19 06:35:27;;;;;;;7.63;2.30;;;;;;;27.60;59.21;101065.13;5160257;28;20033;-75
2022/07/19 06:37:57;;;;;;;6.05;1.77;;;;;;;27.96;58.66;101062.34;5159615;28;20022;-74
2022/07/19 06:40:28;;;;;;;7.70;1.80;;;;;;;27.82;59.42;101064.72;5159943;28;20030;-73
2022/07/19 06:42:58;;;;;;;5.25;1.90;;;;;;;28.51;58.46;101066.56;5158466;28;20026;-75
2022/07/19 06:45:28;;;;;;;5.53;2.20;;;;;;;28.46;55.99;101065.34;5159688;28;20022;-74
2022/07/19 06:47:59;;;;;;;5.88;2.05;;;;;;;29.21;53.47;101058.28;5159428;28;20026;-74
2022/07/19 06:50:29;;;;;;;5.78;2.10;;;;;;;29.57;52.95;101057.94;5159836;28;20030;-75
2022/07/19 06:53:00;;;;;;;3.92;1.65;;;;;;;29.60;54.35;101059.47;5160026;28;20080;-75
2022/07/19 06:55:30;;;;;;;7.03;2.10;;;;;;;29.16;56.55;101065.97;5159855;28;20014;-74
2022/07/19 06:58:00;;;;;;;6.28;2.08;;;;;;;29.58;53.73;101056.09;5158783;28;20037;-74
2022/07/19 07:00:31;;;;;;;4.00;2.00;;;;;;;29.05;55.23;101060.91;5159125;28;20026;-74
2022/07/19 07:03:01;;;;;;;9.93;2.20;;;;;;;29.68;55.92;101062.16;5158388;28;20030;-74
2022/07/19 07:05:32;;;;;;;7.32;2.22;;;;;;;29.31;53.00;101064.38;5159153;28;20571;-73
2022/07/19 07:08:03;;;;;;;6.15;1.75;;;;;;;30.10;52.92;101057.56;5159076;28;20026;-74
2022/07/19 07:10:33;;;;;;;8.75;2.47;;;;;;;30.18;54.40;101054.88;5158918;28;20487;-73
2022/07/19 07:13:03;;;;;;;8.27;2.25;;;;;;;29.18;55.20;101069.34;5159421;28;20030;-73
2022/07/19 07:15:34;;;;;;;4.75;1.98;;;;;;;31.64;51.13;101058.75;5165814;28;20384;-75
2022/07/19 07:18:04;;;;;;;5.75;1.98;;;;;;;33.16;48.85;101064.59;5159180;28;20515;-73
2022/07/19 07:20:35;;;;;;;4.70;2.05;;;;;;;31.80;51.45;101069.50;5158718;28;20045;-75
2022/07/19 07:23:05;;;;;;;6.60;1.88;;;;;;;32.35;49.00;101071.00;5159422;28;20468;-73
2022/07/19 07:25:36;;;;;;;6.15;1.75;;;;;;;32.41;51.55;101064.03;5166005;28;20113;-73
2022/07/19 07:28:06;;;;;;;4.10;1.73;;;;;;;32.88;50.17;101068.16;5158758;28;20029;-71
2022/07/19 07:30:36;;;;;;;3.17;1.93;;;;;;;33.68;46.30;101057.16;5174456;28;20430;-72
2022/07/19 07:33:07;;;;;;;6.15;1.90;;;;;;;33.85;47.21;101064.06;5159157;28;20125;-74
2022/07/19 07:35:37;;;;;;;3.50;1.85;;;;;;;34.19;46.34;101056.09;5158937;28;20030;-73
2022/07/19 07:38:08;;;;;;;6.03;1.93;;;;;;;34.31;46.49;101059.16;5158643;28;20010;-73
2022/07/19 07:40:38;;;;;;;8.73;2.00;;;;;;;34.85;46.06;101054.78;5159688;28;20277;-74
2022/07/19 07:43:08;;;;;;;6.25;1.80;;;;;;;36.05;44.06;101053.91;5159495;28;20106;-75
2022/07/19 07:45:39;;;;;;;7.07;2.03;;;;;;;34.93;44.75;101054.63;5174662;28;20033;-74
2022/07/19 07:48:09;;;;;;;10.02;1.70;;;;;;;35.85;43.73;101055.75;5159149;28;20284;-75
2022/07/19 07:50:39;;;;;;;8.43;1.70;;;;;;;35.40;45.07;101050.94;5159751;28;20022;-75
2022/07/19 07:53:10;;;;;;;3.85;2.00;;;;;;;35.77;44.30;101046.94;5159582;28;20599;-75
2022/07/19 07:55:41;;;;;;;6.57;1.90;;;;;;;36.61;42.56;101055.22;5159932;28;20026;-75
2022/07/19 07:58:12;;;;;;;5.85;1.88;;;;;;;34.67;43.76;101051.72;5158068;28;20054;-74
2022/07/19 08:00:43;;;;;;;8.57;1.98;;;;;;;36.75;42.74;101048.72;5159301;28;20038;-74
2022/07/19 08:03:13;;;;;;;10.98;1.70;;;;;;;36.86;42.40;101047.22;5157440;28;20018;-75
2022/07/19 08:05:47;;;;;;;10.15;1.98;;;;;;;37.95;40.80;101046.00;5159616;28;20030;-75
2022/07/19 08:08:17;;;;;;;5.68;1.88;;;;;;;35.99;43.94;101048.44;5158934;28;20464;-75
2022/07/19 08:10:48;;;;;;;12.85;2.10;;;;;;;36.55;42.48;101047.91;5158001;28;20018;-75
2022/07/19 08:13:18;;;;;;;6.15;1.77;;;;;;;36.69;41.40;101051.44;5159383;28;20599;-73
2022/07/19 08:15:49;;;;;;;8.00;1.95;;;;;;;35.84;43.10;101045.91;5158755;28;20024;-74
2022/07/19 08:18:19;;;;;;;7.25;2.03;;;;;;;36.08;42.86;101048.03;5156841;28;20025;-73
2022/07/19 08:20:50;;;;;;;8.30;1.97;;;;;;;36.95;41.96;101045.97;5158324;28;20042;-74
2022/07/19 08:23:20;;;;;;;4.95;1.83;;;;;;;38.73;38.33;101044.53;5157666;28;20335;-74
2022/07/19 08:25:50;;;;;;;7.82;1.80;;;;;;;37.24;39.57;101049.88;5159177;28;20113;-74
2022/07/19 08:28:21;;;;;;;5.93;1.80;;;;;;;37.51;39.51;101045.16;5160371;28;20030;-74
2022/07/19 08:30:51;;;;;;;6.70;1.90;;;;;;;39.02;39.44;101044.69;5161008;28;20396;-75
2022/07/19 08:33:21;;;;;;;6.93;1.57;;;;;;;39.70;37.33;101041.56;5161384;28;20058;-73
2022/07/19 08:35:52;;;;;;;7.40;1.70;;;;;;;38.58;37.22;101050.38;5160913;28;20746;-74
2022/07/19 08:38:22;;;;;;;5.13;1.87;;;;;;;36.18;40.66;101043.06;5160788;28;20022;-73
2022/07/19 08:40:53;;;;;;;4.25;1.60;;;;;;;37.19;40.23;101043.38;5160897;28;20284;-73
2022/07/19 08:43:23;;;;;;;4.25;1.90;;;;;;;39.04;37.92;101042.56;5159557;28;20026;-72
2022/07/19 08:45:54;;;;;;;4.05;1.45;;;;;;;37.27;40.67;101045.88;5161011;28;20427;-74
2022/07/19 08:48:24;;;;;;;6.90;1.67;;;;;;;38.99;38.54;101044.31;5160118;28;20359;-75
2022/07/19 08:50:55;;;;;;;5.65;1.70;;;;;;;37.42;39.38;101043.72;5161396;28;20111;-74
2022/07/19 08:53:30;;;;;;;5.70;1.70;;;;;;;36.88;39.33;101040.53;5156510;28;20638;-75
2022/07/19 08:56:01;;;;;;;;;;;;;;;38.81;38.91;101034.19;5161387;28;20022;-74
2022/07/19 08:58:31;;;;;;;4.57;1.70;;;;;;;39.00;38.24;101037.78;5158474;28;20397;-74
2022/07/19 09:01:01;;;;;;;5.97;1.90;;;;;;;39.13;38.61;101040.38;5160182;28;20476;-75
2022/07/19 09:03:32;;;;;;;4.00;1.50;;;;;;;38.55;37.11;101039.03;5160255;28;20022;-75
2022/07/19 09:06:03;;;;;;;4.43;1.60;;;;;;;37.35;40.09;101049.22;5160993;28;20269;-74
2022/07/19 09:08:44;;;;;;;7.55;1.48;;;;;;;37.94;39.34;101035.31;5160367;28;20281;-75
2022/07/19 09:11:31;;;;;;;5.63;1.40;;;;;;;38.65;37.85;101031.16;5160159;28;20030;-73
2022/07/19 09:14:07;;;;;;;8.32;1.80;;;;;;;38.59;38.04;101029.34;5159715;28;20589;-75
2022/07/19 09:16:56;;;;;;;3.88;1.40;;;;;;;37.97;36.21;101029.41;5159970;28;20037;-73
2022/07/19 09:19:27;;;;;;;15.25;1.85;;;;;;;37.19;38.95;101035.19;5155913;28;20620;-75
2022/07/19 09:21:57;;;;;;;3.53;1.52;;;;;;;39.14;36.48;101031.91;5160425;28;20042;-72
2022/07/19 09:24:31;;;;;;;4.70;1.67;;;;;;;38.20;37.56;101032.38;5159748;28;20050;-73
2022/07/19 09:27:07;;;;;;;4.10;1.50;;;;;;;37.93;39.00;101029.00;5160310;28;20030;-73
2022/07/19 09:29:40;;;;;;;11.25;1.67;;;;;;;38.21;37.54;101029.44;5159516;28;20053;-74
2022/07/19 09:32:12;;;;;;;4.78;1.75;;;;;;;38.63;36.08;101016.91;5160200;28;20113;-75
2022/07/19 09:34:50;;;;;;;3.97;1.67;;;;;;;39.49;35.96;101022.03;5160126;28;20048;-74
2022/07/19 09:37:29;;;;;;;3.97;1.35;;;;;;;38.35;36.55;101020.09;5158623;28;20026;-74
2022/07/19 09:40:03;;;;;;;2.85;1.40;;;;;;;38.11;36.16;101017.31;5156358;28;20034;-76
2022/07/19 09:42:42;;;;;;;4.25;1.50;;;;;;;37.99;38.62;101019.09;5159676;28;20027;-75
2022/07/19 09:45:14;;;;;;;1.90;1.10;;;;;;;39.97;35.79;101004.50;5160772;28;20030;-74
2022/07/19 09:47:46;;;;;;;3.25;1.40;;;;;;;38.64;36.81;101002.16;5160269;28;20109;-75
2022/07/19 09:50:21;;;;;;;6.00;1.55;;;;;;;38.45;37.06;101001.28;5158921;28;20026;-74
2022/07/19 09:52:52;;;;;;;5.57;1.50;;;;;;;39.47;36.35;100999.50;5160309;28;20073;-75
2022/07/19 09:55:22;;;;;;;2.38;1.30;;;;;;;40.02;35.95;101001.88;5160787;28;20361;-75
2022/07/19 09:57:55;;;;;;;3.83;1.42;;;;;;;38.64;35.66;100997.50;5158687;28;20030;-74
2022/07/19 10:00:26;;;;;;;3.58;1.70;;;;;;;38.32;35.84;100993.19;5158584;28;20624;-75
2022/07/19 10:02:59;;;;;;;2.83;1.40;;;;;;;38.75;35.88;100988.56;5177649;23;20043;-69
2022/07/19 10:05:30;;;;;;;3.58;1.40;;;;;;;38.51;36.04;100988.63;5197626;28;20548;-70
2022/07/19 10:08:01;;;;;;;3.45;1.35;;;;;;;37.57;36.53;100993.28;5197252;28;20071;-70
2022/07/19 10:10:32;;;;;;;3.75;1.50;;;;;;;38.31;36.53;100987.94;5199768;28;20463;-70
2022/07/19 10:13:03;;;;;;;2.17;1.00;;;;;;;39.22;35.91;100985.13;5200271;28;20108;-71
2022/07/19 10:15:39;;;;;;;3.15;1.00;;;;;;;37.81;35.28;100988.94;5183159;28;20021;-70
2022/07/19 10:18:12;;;;;;;4.53;1.10;;;;;;;38.05;35.73;100974.50;5202294;28;20029;-70
2022/07/19 10:20:47;;;;;;;4.63;1.10;;;;;;;36.90;36.84;100983.88;5199551;28;20063;-70
2022/07/19 10:23:26;;;;;;;3.10;1.20;;;;;;;37.47;36.30;100972.97;5182792;28;20390;-72
2022/07/19 10:25:57;;;;;;;3.50;1.10;;;;;;;36.51;36.33;100977.66;5192497;28;20505;-72
2022/07/19 10:28:35;;;;;;;2.40;1.42;;;;;;;36.55;36.67;100979.78;5195573;28;20018;-72
2022/07/19 10:31:26;;;;;;;3.80;1.25;;;;;;;35.64;36.06;100974.22;5192626;28;20025;-73
2022/07/19 10:34:03;;;;;;;4.32;1.33;;;;;;;35.31;36.45;100973.25;5191016;28;20025;-72
2022/07/19 10:36:34;;;;;;;4.03;1.38;;;;;;;35.73;37.62;100961.25;5200050;28;20030;-72
2022/07/19 10:39:19;;;;;;;1.77;1.17;;;;;;;35.42;37.52;100966.44;5202622;28;20029;-72
2022/07/19 10:42:17;;;;;;;2.55;1.25;;;;;;;35.19;37.89;100953.16;5194043;28;20401;-72
2022/07/19 10:44:57;;;;;;;7.63;1.38;;;;;;;35.12;38.35;100962.31;5198270;28;20048;-72
2022/07/19 10:47:39;;;;;;;2.47;1.20;;;;;;;34.88;37.60;100951.09;5196327;28;20398;-72
2022/07/19 10:50:14;;;;;;;1.75;1.15;;;;;;;34.76;38.68;100950.00;5199587;28;20029;-72
2022/07/19 10:52:45;;;;;;;3.40;1.27;;;;;;;34.88;38.74;100949.22;5198908;28;20029;-72
2022/07/19 10:55:34;;;;;;;3.58;1.25;;;;;;;35.22;38.50;100946.47;5181875;28;20148;-72
2022/07/19 10:58:05;;;;;;;5.72;1.40;;;;;;;35.07;37.42;100941.16;5197834;28;20065;-72
2022/07/19 11:00:44;;;;;;;4.27;1.30;;;;;;;34.79;36.70;100933.28;5199761;28;20483;-72
2022/07/19 11:03:21;;;;;;;2.75;1.40;;;;;;;35.27;36.74;100928.50;5198369;28;20524;-72
2022/07/19 11:05:57;;;;;;;6.07;1.48;;;;;;;35.14;36.50;100927.59;5199255;28;20623;-72
2022/07/19 11:08:39;;;;;;;3.92;1.25;;;;;;;35.05;35.74;100921.50;5189319;28;20025;-71
2022/07/19 11:11:13;;;;;;;2.08;1.30;;;;;;;35.12;36.13;100935.94;5191919;28;20052;-72
2022/07/19 11:13:48;;;;;;;1.52;1.10;;;;;;;35.05;37.13;100926.06;5196762;28;20032;-72
2022/07/19 11:16:19;;;;;;;3.40;1.40;;;;;;;35.13;38.51;100912.31;5196463;28;20040;-71
2022/07/19 11:18:50;;;;;;;8.02;1.45;;;;;;;35.21;38.73;100918.44;5196557;28;20375;-72
2022/07/19 11:21:21;;;;;;;3.83;1.30;;;;;;;35.41;38.56;100908.44;5196751;28;20033;-72
2022/07/19 11:23:52;;;;;;;5.63;1.45;;;;;;;35.51;39.27;100910.75;5196584;28;20096;-72
2022/07/19 11:26:22;;;;;;;4.43;1.25;;;;;;;35.49;39.44;100907.41;5196803;28;20447;-72
2022/07/19 11:28:53;;;;;;;3.53;1.27;;;;;;;35.20;37.40;100903.19;5190373;28;20057;-72
2022/07/19 11:31:24;;;;;;;2.65;1.33;;;;;;;35.30;38.87;100900.88;5192852;28;20021;-72
2022/07/19 11:33:56;;;;;;;2.42;1.20;;;;;;;35.19;36.99;100901.50;5180306;28;20039;-72
2022/07/19 11:36:27;;;;;;;4.07;1.20;;;;;;;34.94;37.21;100909.53;5188889;28;20470;-72
2022/07/19 11:38:58;;;;;;;2.60;1.50;;;;;;;35.22;36.22;100897.50;5196690;28;20021;-72
2022/07/19 11:41:33;;;;;;;5.78;1.50;;;;;;;34.83;36.63;100882.94;5188530;28;20048;-72
2022/07/19 11:44:06;;;;;;;6.03;1.90;;;;;;;34.82;36.16;100884.00;5195294;28;20029;-72